Oakland, Louisiana
Current Conditions -  °F | °C
As of 8:55 PM on Monday 20 Oct 2014 (Local Time) from KBQP Reporting Station
Clear Clear  
Wind Chill: 56°   Ceiling: Unl
Heat Index: 56°   Visibility: 10mi
Dew Point: 55°   Wind: 0mph
Humidity: 95%   Direction: NA
Pressure: 30.06"   Gusts: NA
Location:  32.906°N, 92.243°W
Report Text: KBQP 210155Z AUTO 00000KT 10SM CLR 14/13 A3006 RMK AO2 T01350127
Loading
Personal Weather Stations






























Interactive Weather Map
Tropical Storm Tracking
New forecast layout! Learn more

10-Day Weather Forecast

Advertisements
Track Severe Weather on mobile